createdAt,value
2019-05-13T00:00:51.036Z,2.03
2019-05-13T00:03:21.344Z,2.20
2019-05-13T00:05:53.563Z,2.30
2019-05-13T00:08:24.981Z,1.77
2019-05-13T00:10:56.476Z,1.70
2019-05-13T00:13:26.848Z,2.00
2019-05-13T00:15:57.248Z,1.80
2019-05-13T00:18:27.671Z,1.87
2019-05-13T00:20:58.095Z,2.03
2019-05-13T00:23:28.520Z,2.27
2019-05-13T00:25:58.859Z,2.20
2019-05-13T00:28:29.192Z,1.90
2019-05-13T00:30:59.507Z,2.10
2019-05-13T00:33:29.895Z,2.20
2019-05-13T00:36:00.172Z,2.20
2019-05-13T00:38:33.569Z,2.37
2019-05-13T00:41:04.199Z,2.10
2019-05-13T00:43:34.572Z,2.27
2019-05-13T00:46:07.004Z,2.03
2019-05-13T00:48:37.380Z,2.00
2019-05-13T00:51:07.944Z,2.10
2019-05-13T00:53:38.310Z,2.90
2019-05-13T00:56:08.732Z,2.10
2019-05-13T00:58:39.862Z,2.07
2019-05-13T01:01:10.183Z,2.20
2019-05-13T01:03:40.506Z,2.13
2019-05-13T01:06:13.382Z,2.10
2019-05-13T01:08:44.282Z,2.23
2019-05-13T01:11:14.844Z,2.53
2019-05-13T01:13:45.254Z,2.63
2019-05-13T01:16:16.074Z,1.80
2019-05-13T01:18:46.407Z,2.03
2019-05-13T01:21:19.274Z,2.20
2019-05-13T01:23:49.504Z,2.20
2019-05-13T01:26:23.317Z,2.43
2019-05-13T01:28:54.864Z,2.30
2019-05-13T01:31:25.403Z,2.20
2019-05-13T01:33:55.759Z,2.57
2019-05-13T01:36:26.047Z,2.47
2019-05-13T01:38:57.566Z,2.53
2019-05-13T01:41:28.039Z,2.20
2019-05-13T01:43:58.395Z,2.73
2019-05-13T01:46:28.678Z,2.50
2019-05-13T01:49:00.086Z,2.50
2019-05-13T01:51:30.702Z,2.53
2019-05-13T01:56:45.101Z,2.60
2019-05-13T01:59:15.514Z,2.90
2019-05-13T02:01:45.814Z,2.80
2019-05-13T02:04:16.172Z,2.70
2019-05-13T02:06:46.502Z,3.10
2019-05-13T02:09:16.896Z,2.47
2019-05-13T02:11:49.482Z,3.00
2019-05-13T02:14:19.909Z,2.93
2019-05-13T02:16:50.281Z,2.30
2019-05-13T02:19:20.741Z,2.80
2019-05-13T02:21:51.085Z,2.40
2019-05-13T02:24:23.548Z,2.77
2019-05-13T02:26:54.350Z,2.73
2019-05-13T02:29:24.696Z,2.83
2019-05-13T02:31:56.227Z,3.03
2019-05-13T02:34:27.014Z,3.03
2019-05-13T02:36:57.410Z,2.50
2019-05-13T02:39:28.126Z,2.80
2019-05-13T02:41:58.521Z,2.70
2019-05-13T02:44:29.134Z,2.63
2019-05-13T02:47:02.995Z,3.00
2019-05-13T02:49:32.454Z,3.03
2019-05-13T02:52:04.060Z,2.87
2019-05-13T02:54:35.324Z,3.37
2019-05-13T02:57:05.747Z,3.10
2019-05-13T02:59:36.078Z,3.20
2019-05-13T03:02:06.503Z,2.90
2019-05-13T03:04:37.904Z,2.80
2019-05-13T03:07:08.342Z,2.70
2019-05-13T03:09:42.052Z,3.00
2019-05-13T03:12:13.093Z,3.20
2019-05-13T03:14:48.111Z,3.20
2019-05-13T03:17:22.339Z,3.10
2019-05-13T03:19:53.492Z,3.10
2019-05-13T03:22:23.941Z,3.47
2019-05-13T03:24:54.277Z,3.47
2019-05-13T03:27:25.351Z,3.33
2019-05-13T03:29:57.053Z,3.37
2019-05-13T03:32:35.740Z,3.27
2019-05-13T03:35:06.316Z,3.73
2019-05-13T03:37:34.838Z,3.30
2019-05-13T03:40:05.460Z,3.00
2019-05-13T03:42:38.149Z,3.10
2019-05-13T03:45:08.906Z,3.23
2019-05-13T03:47:42.197Z,3.10
2019-05-13T03:50:13.119Z,3.37
2019-05-13T03:52:43.598Z,3.20
2019-05-13T03:55:14.368Z,3.63
2019-05-13T03:57:44.882Z,3.30
2019-05-13T04:00:15.600Z,3.20
2019-05-13T04:02:47.368Z,3.70
2019-05-13T04:05:17.673Z,3.57
2019-05-13T04:07:52.010Z,3.47
2019-05-13T04:10:22.881Z,3.13
2019-05-13T04:12:53.217Z,3.50
2019-05-13T04:15:23.998Z,3.60
2019-05-13T04:17:54.533Z,3.30
2019-05-13T04:20:25.250Z,3.40
2019-05-13T04:22:55.642Z,3.37
2019-05-13T04:25:26.057Z,3.30
2019-05-13T04:27:56.584Z,3.50
2019-05-13T04:30:27.007Z,2.97
2019-05-13T04:32:57.395Z,3.20
2019-05-13T04:35:27.840Z,3.57
2019-05-13T04:37:58.330Z,3.83
2019-05-13T04:40:28.948Z,3.37
2019-05-13T04:43:02.507Z,3.60
2019-05-13T04:45:33.063Z,3.60
2019-05-13T04:48:04.096Z,4.00
2019-05-13T04:50:34.534Z,3.83
2019-05-13T04:53:05.045Z,3.53
2019-05-13T04:55:35.513Z,3.23
2019-05-13T04:58:06.264Z,3.57
2019-05-13T05:01:08.957Z,3.97
2019-05-13T05:03:56.538Z,4.07
2019-05-13T05:06:46.790Z,3.50
2019-05-13T05:10:13.185Z,3.67
2019-05-13T05:13:02.302Z,3.73
2019-05-13T05:16:06.627Z,3.90
2019-05-13T05:18:56.878Z,3.53
2019-05-13T05:21:32.169Z,3.77
2019-05-13T05:24:33.809Z,4.00
2019-05-13T05:27:35.469Z,4.67
2019-05-13T05:30:35.892Z,4.37
2019-05-13T05:33:42.865Z,4.87
2019-05-13T05:36:27.398Z,5.77
2019-05-13T05:39:16.805Z,9.20
2019-05-13T05:41:47.826Z,18.40
2019-05-13T05:44:21.411Z,10.73
2019-05-13T05:46:54.342Z,20.60
2019-05-13T05:49:26.209Z,6.97
2019-05-13T05:52:06.306Z,5.30
2019-05-13T05:54:39.033Z,4.83
2019-05-13T05:57:12.187Z,4.70
2019-05-13T05:59:42.842Z,4.23
2019-05-13T06:02:13.446Z,4.63
2019-05-13T06:04:46.535Z,5.13
2019-05-13T06:07:17.326Z,4.43
2019-05-13T06:09:47.706Z,4.60
2019-05-13T06:12:18.333Z,3.97
2019-05-13T06:14:52.215Z,4.47
2019-05-13T06:17:21.910Z,3.93
2019-05-13T06:19:52.469Z,4.30
2019-05-13T06:22:22.897Z,4.03
2019-05-13T06:24:53.305Z,3.83
2019-05-13T06:27:23.790Z,3.50
2019-05-13T06:29:54.204Z,4.10
2019-05-13T06:32:26.437Z,3.90
2019-05-13T06:34:56.850Z,3.40
2019-05-13T06:37:27.453Z,3.67
2019-05-13T06:39:57.896Z,3.53
2019-05-13T06:42:28.157Z,3.30
2019-05-13T06:44:59.082Z,3.33
2019-05-13T06:47:29.410Z,2.90
2019-05-13T06:50:02.993Z,2.63
2019-05-13T06:52:34.366Z,2.57
2019-05-13T06:55:05.757Z,2.73
2019-05-13T06:57:36.180Z,2.73
2019-05-13T07:00:12.193Z,2.30
2019-05-13T07:02:43.142Z,2.30
2019-05-13T07:05:13.669Z,2.40
2019-05-13T07:07:44.013Z,2.23
2019-05-13T07:10:14.418Z,2.57
2019-05-13T07:12:44.689Z,2.70
2019-05-13T07:15:15.206Z,2.50
2019-05-13T07:17:45.502Z,2.57
2019-05-13T07:20:15.898Z,3.00
2019-05-13T07:22:46.313Z,3.10
2019-05-13T07:25:17.708Z,2.83
2019-05-13T07:27:47.965Z,2.40
2019-05-13T07:30:22.678Z,3.03
2019-05-13T07:32:53.014Z,2.10
2019-05-13T07:35:23.373Z,2.47
2019-05-13T07:37:53.769Z,2.60
2019-05-13T07:40:24.037Z,2.60
2019-05-13T07:42:54.319Z,2.50
2019-05-13T07:45:24.710Z,2.60
2019-05-13T07:47:56.046Z,2.30
2019-05-13T07:50:26.462Z,2.67
2019-05-13T07:52:56.843Z,2.50
2019-05-13T07:55:27.271Z,2.90
2019-05-13T07:57:57.682Z,2.50
2019-05-13T08:00:28.171Z,2.40
2019-05-13T08:02:58.496Z,2.10
2019-05-13T08:05:31.286Z,2.60
2019-05-13T08:08:02.582Z,2.50
2019-05-13T08:10:33.010Z,2.50
2019-05-13T08:13:03.294Z,2.60
2019-05-13T08:15:34.782Z,2.20
2019-05-13T08:18:05.502Z,3.83
2019-05-13T08:20:36.038Z,3.10
2019-05-13T08:23:06.395Z,2.60
2019-05-13T08:25:36.751Z,3.00
2019-05-13T08:28:07.106Z,2.83
2019-05-13T08:30:37.460Z,2.87
2019-05-13T08:33:07.866Z,2.33
2019-05-13T08:35:38.226Z,2.80
2019-05-13T08:38:08.646Z,2.50
2019-05-13T08:40:39.098Z,2.37
2019-05-13T08:43:11.927Z,2.43
2019-05-13T08:45:42.281Z,2.50
2019-05-13T08:48:13.124Z,2.40
2019-05-13T08:50:44.616Z,2.70
2019-05-13T08:53:14.946Z,2.10
2019-05-13T08:55:45.462Z,2.30
2019-05-13T08:58:15.798Z,2.47
2019-05-13T09:00:53.900Z,2.10
2019-05-13T09:03:25.215Z,2.20
2019-05-13T09:05:55.839Z,2.00
2019-05-13T09:08:26.461Z,1.93
2019-05-13T09:10:57.316Z,1.70
2019-05-13T09:13:27.931Z,1.77
2019-05-13T09:15:58.378Z,2.10
2019-05-13T09:18:28.650Z,2.50
2019-05-13T09:20:59.002Z,1.40
2019-05-13T09:23:31.425Z,1.60
2019-05-13T09:26:02.526Z,2.03
2019-05-13T09:28:33.210Z,2.10
2019-05-13T09:31:03.479Z,2.30
2019-05-13T09:33:33.887Z,1.93
2019-05-13T09:36:04.579Z,1.43
2019-05-13T09:38:34.995Z,1.67
2019-05-13T09:41:05.422Z,2.07
2019-05-13T09:43:35.848Z,2.00
2019-05-13T09:46:06.287Z,1.80
2019-05-13T09:48:36.704Z,1.77
2019-05-13T09:51:06.978Z,1.97
2019-05-13T09:53:37.331Z,1.70
2019-05-13T09:56:07.615Z,1.47
2019-05-13T09:58:38.118Z,1.83
2019-05-13T10:01:08.571Z,1.70
2019-05-13T10:03:53.299Z,2.07
2019-05-13T10:06:12.702Z,1.90
2019-05-13T10:08:43.181Z,1.73
2019-05-13T10:11:13.514Z,1.80
2019-05-13T10:13:43.931Z,1.90
2019-05-13T10:16:14.371Z,1.87
2019-05-13T10:18:44.706Z,2.30
2019-05-13T10:21:15.303Z,2.07
2019-05-13T10:23:45.748Z,2.03
2019-05-13T10:26:16.372Z,2.03
2019-05-13T10:28:47.772Z,1.80
2019-05-13T10:31:18.171Z,1.70
2019-05-13T10:33:50.866Z,1.97
2019-05-13T10:36:22.197Z,2.00
2019-05-13T10:38:52.827Z,2.20
2019-05-13T10:41:23.262Z,2.10
2019-05-13T10:43:53.595Z,1.77
2019-05-13T10:46:24.024Z,2.37
2019-05-13T10:48:54.416Z,1.83
2019-05-13T10:51:24.878Z,1.90
2019-05-13T10:53:59.517Z,2.00
2019-05-13T10:56:27.119Z,1.80
2019-05-13T10:58:57.612Z,1.70
2019-05-13T11:01:28.018Z,2.00
2019-05-13T11:03:58.295Z,2.03
2019-05-13T11:06:28.802Z,1.57
2019-05-13T11:09:01.566Z,1.70
2019-05-13T11:11:33.049Z,1.83
2019-05-13T11:14:10.820Z,1.60
2019-05-13T11:16:36.839Z,1.77
2019-05-13T11:19:07.315Z,1.80
2019-05-13T11:21:37.759Z,2.17
2019-05-13T11:24:13.603Z,1.70
2019-05-13T11:26:44.019Z,1.90
2019-05-13T11:29:15.276Z,1.77
2019-05-13T11:31:45.639Z,1.50
2019-05-13T11:34:15.983Z,1.80
2019-05-13T11:36:46.355Z,1.70
2019-05-13T11:39:16.583Z,1.70
2019-05-13T11:41:46.943Z,1.50
2019-05-13T11:44:17.395Z,1.67
2019-05-13T11:46:47.723Z,2.27
2019-05-13T11:49:18.095Z,1.90
2019-05-13T11:51:48.627Z,1.80
2019-05-13T11:54:21.643Z,1.70
2019-05-13T11:57:01.214Z,1.80
2019-05-13T11:59:23.098Z,2.40
2019-05-13T12:01:54.176Z,2.07
2019-05-13T12:04:24.959Z,1.80
2019-05-13T12:06:55.382Z,2.47
2019-05-13T12:09:25.635Z,2.20
2019-05-13T12:11:55.944Z,1.73
2019-05-13T12:14:43.550Z,2.33
2019-05-13T12:16:58.451Z,2.17
2019-05-13T12:19:29.748Z,1.50
2019-05-13T12:22:02.735Z,1.90
2019-05-13T12:24:32.355Z,1.87
2019-05-13T12:27:03.883Z,2.00
2019-05-13T12:29:34.440Z,2.60
2019-05-13T12:32:04.875Z,2.43
2019-05-13T12:34:40.390Z,2.90
2019-05-13T12:37:07.311Z,4.27
2019-05-13T12:39:37.579Z,1.93
2019-05-13T12:42:08.024Z,2.10
2019-05-13T12:44:59.762Z,2.10
2019-05-13T12:47:12.137Z,1.80
2019-05-13T12:52:14.735Z,3.27
2019-05-13T12:54:45.120Z,2.60
2019-05-13T12:57:16.433Z,2.40
2019-05-13T12:59:47.776Z,2.10
2019-05-13T13:02:18.220Z,2.40
2019-05-13T13:05:08.793Z,3.30
2019-05-13T13:07:21.579Z,2.60
2019-05-13T13:09:53.702Z,2.03
2019-05-13T13:12:34.330Z,2.43
2019-05-13T13:14:57.668Z,2.50
2019-05-13T13:17:29.018Z,2.60
2019-05-13T13:20:07.370Z,2.10
2019-05-13T13:22:32.167Z,2.57
2019-05-13T13:25:04.929Z,2.63
2019-05-13T13:27:59.873Z,2.30
2019-05-13T13:30:08.851Z,2.43
2019-05-13T13:32:39.320Z,2.30
2019-05-13T13:35:14.779Z,2.23
2019-05-13T13:37:45.979Z,2.80
2019-05-13T13:40:24.520Z,2.53
2019-05-13T13:42:52.651Z,2.10
2019-05-13T13:45:22.760Z,2.10
2019-05-13T13:48:02.896Z,2.27
2019-05-13T13:50:25.024Z,3.10
2019-05-13T13:52:55.452Z,3.20
2019-05-13T13:55:26.149Z,2.63
2019-05-13T13:57:57.016Z,2.40
2019-05-13T14:00:40.725Z,2.43
2019-05-13T14:03:06.053Z,2.20
2019-05-13T14:05:36.231Z,2.50
2019-05-13T14:06:33.330Z,2.83
2019-05-13T14:08:04.259Z,2.07
2019-05-13T14:10:34.565Z,2.10
2019-05-13T14:13:05.461Z,5.70
2019-05-13T14:15:35.936Z,7.10
2019-05-13T14:18:06.336Z,2.83
2019-05-13T14:20:36.821Z,3.50
2019-05-13T14:23:07.177Z,2.90
2019-05-13T14:25:37.508Z,3.17
2019-05-13T14:28:07.961Z,4.00
2019-05-13T14:30:38.443Z,2.70
2019-05-13T14:33:08.808Z,2.80
2019-05-13T14:35:41.435Z,2.67
2019-05-13T14:38:11.906Z,2.43
2019-05-13T14:40:42.451Z,2.70
2019-05-13T14:43:13.159Z,2.60
2019-05-13T14:45:43.611Z,2.30
2019-05-13T14:48:13.949Z,2.63
2019-05-13T14:50:44.573Z,2.60
2019-05-13T14:53:14.978Z,2.60
2019-05-13T14:55:45.544Z,2.57
2019-05-13T14:58:16.319Z,2.70
2019-05-13T15:00:46.880Z,2.40
2019-05-13T15:03:17.440Z,2.40
2019-05-13T15:05:47.912Z,2.53
2019-05-13T15:08:22.117Z,2.50
2019-05-13T15:10:53.170Z,2.80
2019-05-13T15:13:22.514Z,2.70
2019-05-13T15:15:52.844Z,2.80
2019-05-13T15:18:23.308Z,2.60
2019-05-13T15:20:53.784Z,2.43
2019-05-13T15:23:24.068Z,2.57
2019-05-13T15:25:54.438Z,2.60
2019-05-13T15:28:24.752Z,2.90
2019-05-13T15:30:55.044Z,2.57
2019-05-13T15:33:25.323Z,2.33
2019-05-13T15:35:56.152Z,2.90
2019-05-13T15:38:26.456Z,2.40
2019-05-13T15:40:56.784Z,2.80
2019-05-13T15:43:27.237Z,2.60
2019-05-13T15:45:57.592Z,2.60
2019-05-13T15:48:28.061Z,2.63
2019-05-13T15:50:58.388Z,2.50
2019-05-13T15:53:28.755Z,2.40
2019-05-13T15:56:02.555Z,2.70
2019-05-13T15:58:39.202Z,2.60
2019-05-13T16:01:05.342Z,2.10
2019-05-13T16:03:35.600Z,2.40
2019-05-13T16:06:06.048Z,2.50
2019-05-13T16:08:36.388Z,2.20
2019-05-13T16:11:06.737Z,2.23
2019-05-13T16:13:37.101Z,2.20
2019-05-13T16:16:07.354Z,2.10
2019-05-13T16:18:38.319Z,1.90
2019-05-13T16:21:08.677Z,2.03
2019-05-13T16:23:39.030Z,2.30
2019-05-13T16:26:11.665Z,2.00
2019-05-13T16:28:43.453Z,2.57
2019-05-13T16:31:13.849Z,2.07
2019-05-13T16:33:44.141Z,2.00
2019-05-13T16:36:14.797Z,2.73
2019-05-13T16:38:45.101Z,2.00
2019-05-13T16:41:17.209Z,2.50
2019-05-13T16:43:47.665Z,2.40
2019-05-13T16:46:18.069Z,2.50
2019-05-13T16:48:48.436Z,2.47
2019-05-13T16:51:21.440Z,2.70
2019-05-13T16:53:52.280Z,2.57
2019-05-13T16:56:27.663Z,2.07
2019-05-13T16:58:55.933Z,2.30
2019-05-13T17:01:26.340Z,2.40
2019-05-13T17:03:56.663Z,2.50
2019-05-13T17:06:27.013Z,2.80
2019-05-13T17:08:57.289Z,2.70
2019-05-13T17:11:27.657Z,2.70
2019-05-13T17:13:57.929Z,2.80
2019-05-13T17:16:28.310Z,2.60
2019-05-13T17:18:58.596Z,2.47
2019-05-13T17:21:28.965Z,2.57
2019-05-13T17:24:01.385Z,2.73
2019-05-13T17:26:32.652Z,2.30
2019-05-13T17:29:03.497Z,2.60
2019-05-13T17:31:34.105Z,2.20
2019-05-13T17:34:04.598Z,2.20
2019-05-13T17:36:34.944Z,2.27
2019-05-13T17:39:07.819Z,2.40
2019-05-13T17:41:38.299Z,2.63
2019-05-13T17:44:08.742Z,2.20
2019-05-13T17:46:41.592Z,1.80
2019-05-13T17:49:11.878Z,1.83
2019-05-13T17:51:42.794Z,2.00
2019-05-13T17:54:13.262Z,2.33
2019-05-13T17:56:43.534Z,2.00
2019-05-13T17:59:16.199Z,1.80
2019-05-13T18:01:45.953Z,2.20
2019-05-13T18:04:16.227Z,2.23
2019-05-13T18:06:46.620Z,1.90
2019-05-13T18:09:17.233Z,3.40
2019-05-13T18:11:47.614Z,2.93
2019-05-13T18:14:18.054Z,2.20
2019-05-13T18:16:48.442Z,2.07
2019-05-13T18:19:18.782Z,1.90
2019-05-13T18:21:51.481Z,1.80
2019-05-13T18:24:21.432Z,2.40
2019-05-13T18:26:52.160Z,1.60
2019-05-13T18:29:22.831Z,1.97
2019-05-13T18:31:55.010Z,1.80
2019-05-13T18:34:25.418Z,1.70
2019-05-13T18:36:57.759Z,1.80
2019-05-13T18:39:27.939Z,1.57
2019-05-13T18:41:58.413Z,1.53
2019-05-13T18:44:31.732Z,1.90
2019-05-13T18:47:02.006Z,1.60
2019-05-13T18:49:32.456Z,1.50
2019-05-13T18:52:02.881Z,1.90
2019-05-13T18:54:33.252Z,1.40
2019-05-13T18:57:03.585Z,1.40
2019-05-13T18:59:33.978Z,1.70
2019-05-13T19:02:04.294Z,1.90
2019-05-13T19:04:34.669Z,1.70
2019-05-13T19:07:07.767Z,1.73
2019-05-13T19:09:37.186Z,1.70
2019-05-13T19:12:07.634Z,1.70
2019-05-13T19:14:38.042Z,1.90
2019-05-13T19:17:08.450Z,1.57
2019-05-13T19:19:42.050Z,1.57
2019-05-13T19:22:12.279Z,1.40
2019-05-13T19:24:42.782Z,1.77
2019-05-13T19:27:13.114Z,1.50
2019-05-13T19:29:43.990Z,1.70
2019-05-13T19:32:14.358Z,1.50
2019-05-13T19:34:44.719Z,1.70
2019-05-13T19:37:15.211Z,1.77
2019-05-13T19:39:45.574Z,1.67
2019-05-13T19:42:16.045Z,3.40
2019-05-13T19:45:12.478Z,8.17
2019-05-13T19:47:52.481Z,8.30
2019-05-13T19:50:44.855Z,9.77
2019-05-13T19:53:22.199Z,6.47
2019-05-13T19:59:03.553Z,10.07
2019-05-13T20:01:45.762Z,7.20
2019-05-13T20:04:17.930Z,6.00
2019-05-13T20:07:11.598Z,3.70
2019-05-13T20:09:55.455Z,2.80
2019-05-13T20:12:47.522Z,1.97
2019-05-13T20:15:31.504Z,1.50
2019-05-13T20:18:26.486Z,1.80
2019-05-13T20:21:33.581Z,1.50
2019-05-13T20:24:21.930Z,1.57
2019-05-13T20:27:01.615Z,1.40
2019-05-13T20:29:53.890Z,1.53
2019-05-13T20:32:27.581Z,1.70
2019-05-13T20:34:57.858Z,1.40
2019-05-13T20:37:28.149Z,1.27
2019-05-13T20:39:58.674Z,1.70
2019-05-13T20:42:29.102Z,1.40
2019-05-13T20:44:59.458Z,1.50
2019-05-13T20:47:29.940Z,1.23
2019-05-13T20:50:02.351Z,1.40
2019-05-13T20:52:34.083Z,1.67
2019-05-13T20:55:05.100Z,1.50
2019-05-13T20:57:35.658Z,1.30
2019-05-13T21:00:06.416Z,1.23
2019-05-13T21:02:38.438Z,1.37
2019-05-13T21:05:09.067Z,1.63
2019-05-13T21:07:41.687Z,1.30
2019-05-13T21:10:12.236Z,1.47
2019-05-13T21:12:42.774Z,1.60
2019-05-13T21:15:13.307Z,1.20
2019-05-13T21:17:43.674Z,1.37
2019-05-13T21:20:19.620Z,1.23
2019-05-13T21:22:47.163Z,1.20
2019-05-13T21:25:17.858Z,1.10
2019-05-13T21:27:48.240Z,1.23
2019-05-13T21:30:18.690Z,1.37
2019-05-13T21:32:49.030Z,1.20
2019-05-13T21:35:21.264Z,1.30
2019-05-13T21:37:51.854Z,1.20
2019-05-13T21:40:22.343Z,1.30
2019-05-13T21:42:52.856Z,1.20
2019-05-13T21:45:23.186Z,1.10
2019-05-13T21:47:53.559Z,1.10
2019-05-13T21:50:34.256Z,1.30
2019-05-13T21:52:55.981Z,1.57
2019-05-13T21:55:26.385Z,1.20
2019-05-13T21:57:56.887Z,1.30
2019-05-13T22:00:32.203Z,1.20
2019-05-13T22:03:04.098Z,1.30
2019-05-13T22:05:34.731Z,1.40
2019-05-13T22:08:05.184Z,1.30
2019-05-13T22:10:35.491Z,1.07
2019-05-13T22:13:05.847Z,1.00
2019-05-13T22:15:36.191Z,1.03
2019-05-13T22:18:06.634Z,1.20
2019-05-13T22:20:47.442Z,1.40
2019-05-13T22:23:08.942Z,1.10
2019-05-13T22:25:43.360Z,1.30
2019-05-13T22:28:11.768Z,1.40
2019-05-13T22:30:42.478Z,1.10
2019-05-13T22:33:12.735Z,1.23
2019-05-13T22:35:43.079Z,0.97
2019-05-13T22:38:14.235Z,1.00
2019-05-13T22:40:44.683Z,1.10
2019-05-13T22:43:15.026Z,0.93
2019-05-13T22:45:45.306Z,1.00
2019-05-13T22:48:15.651Z,1.17
2019-05-13T22:50:46.024Z,0.97
2019-05-13T22:53:16.290Z,1.20
2019-05-13T22:55:46.618Z,1.33
2019-05-13T22:58:16.992Z,1.17
2019-05-13T23:00:47.299Z,0.90
2019-05-13T23:03:18.610Z,1.20
2019-05-13T23:05:48.921Z,1.23
2019-05-13T23:08:21.594Z,1.27
2019-05-13T23:10:51.610Z,1.10
2019-05-13T23:13:22.023Z,1.33
2019-05-13T23:15:52.297Z,1.13
2019-05-13T23:18:22.607Z,1.20
2019-05-13T23:20:53.011Z,1.23
2019-05-13T23:23:23.327Z,1.10
2019-05-13T23:25:56.834Z,1.30
2019-05-13T23:28:26.707Z,1.27
2019-05-13T23:30:57.143Z,1.40
2019-05-13T23:33:27.886Z,1.40
2019-05-13T23:35:58.410Z,1.30
2019-05-13T23:38:31.855Z,1.57
2019-05-13T23:41:02.272Z,1.30
2019-05-13T23:43:32.915Z,1.20
2019-05-13T23:46:03.337Z,1.50
2019-05-13T23:48:33.658Z,1.40
2019-05-13T23:51:04.098Z,1.70
2019-05-13T23:53:34.505Z,1.80
2019-05-13T23:56:04.968Z,1.70
2019-05-13T23:58:35.348Z,1.67
